Time;durP1;ratioP1;P1;durP2;ratioP2;P2;SDS_P1;SDS_P2;PMS_P1;PMS_P2;Temp;Humidity;BMP_temperature;BMP_pressure;BME280_temperature;BME280_humidity;BME280_pressure;Samples;Min_cycle;Max_cycle;Signal;HPM_P1;HPM_P2
2021/08/15 00:01:44;;;;;;;9.48;4.35;;;;;;;18.83;67.95;100679.19;5029556;28;20072;-73
2021/08/15 00:04:30;;;;;;;7.40;3.42;;;;;;;18.77;67.40;100676.94;5027583;28;20478;-73
2021/08/15 00:07:16;;;;;;;10.50;4.35;;;;;;;18.76;67.58;100670.50;5022907;28;20071;-73
2021/08/15 00:10:02;;;;;;;9.05;4.13;;;;;;;18.71;67.49;100676.28;5034840;28;20064;-73
2021/08/15 00:12:48;;;;;;;10.73;4.22;;;;;;;18.69;67.43;100681.44;5031584;28;20048;-73
2021/08/15 00:15:33;;;;;;;12.82;3.97;;;;;;;18.64;67.97;100676.03;5031650;28;20045;-73
2021/08/15 00:18:19;;;;;;;8.50;4.10;;;;;;;18.61;67.96;100674.75;5024359;28;20049;-73
2021/08/15 00:21:05;;;;;;;10.55;4.05;;;;;;;18.59;68.24;100677.06;5032955;28;20087;-73
2021/08/15 00:23:51;;;;;;;9.18;4.28;;;;;;;18.57;67.90;100672.94;5027370;28;20056;-73
2021/08/15 00:26:36;;;;;;;11.05;4.43;;;;;;;18.48;69.85;100673.03;5026559;28;20033;-73
2021/08/15 00:29:22;;;;;;;9.10;4.13;;;;;;;18.46;68.58;100664.94;5019243;28;20034;-73
2021/08/15 00:32:08;;;;;;;9.00;3.90;;;;;;;18.44;68.44;100656.03;5034024;28;20033;-73
2021/08/15 00:34:54;;;;;;;10.85;4.15;;;;;;;18.42;68.46;100652.72;5034527;28;20078;-73
2021/08/15 00:37:40;;;;;;;9.93;4.25;;;;;;;18.40;68.20;100649.44;5009764;28;20040;-73
2021/08/15 00:40:26;;;;;;;10.82;4.10;;;;;;;18.38;68.51;100650.94;5021515;28;20046;-73
2021/08/15 00:43:12;;;;;;;10.95;4.75;;;;;;;18.34;68.66;100645.19;5029085;28;20034;-73
2021/08/15 00:45:58;;;;;;;7.00;3.40;;;;;;;18.29;68.54;100629.34;5024675;28;20033;-73
2021/08/15 00:48:44;;;;;;;9.95;4.45;;;;;;;18.31;68.23;100631.81;5006126;28;20083;-73
2021/08/15 00:51:30;;;;;;;11.60;4.50;;;;;;;18.24;68.36;100628.72;4995242;28;20057;-73
2021/08/15 00:54:16;;;;;;;7.05;3.72;;;;;;;18.25;68.86;100634.03;5031165;28;20061;-73
2021/08/15 00:57:02;;;;;;;10.23;4.03;;;;;;;18.17;68.67;100623.66;5031747;28;20036;-73
2021/08/15 00:59:48;;;;;;;8.82;4.47;;;;;;;18.12;68.59;100625.84;5018756;28;20112;-73
2021/08/15 01:02:41;;;;;;;10.38;4.55;;;;;;;18.07;69.54;100618.44;5025844;28;20038;-73
2021/08/15 01:05:28;;;;;;;10.88;4.32;;;;;;;18.05;69.07;100617.94;5030394;28;20042;-73
2021/08/15 01:08:14;;;;;;;10.10;4.50;;;;;;;18.02;69.21;100611.03;5021033;28;20041;-73
2021/08/15 01:11:09;;;;;;;9.80;3.90;;;;;;;18.00;69.47;100606.94;5023648;28;20044;-73
2021/08/15 01:13:55;;;;;;;8.93;4.13;;;;;;;17.96;69.16;100606.78;5031630;28;20060;-73
2021/08/15 01:16:42;;;;;;;9.43;4.65;;;;;;;17.94;70.01;100603.50;5028576;28;20033;-73
2021/08/15 01:19:29;;;;;;;9.32;4.80;;;;;;;17.92;70.34;100607.81;5029535;28;20108;-73
2021/08/15 01:22:15;;;;;;;11.73;4.22;;;;;;;17.90;70.96;100618.56;5023410;28;20044;-73
2021/08/15 01:25:05;;;;;;;8.63;3.97;;;;;;;17.84;70.07;100613.16;5023954;28;20121;-73
2021/08/15 01:27:51;;;;;;;11.13;4.15;;;;;;;17.84;69.66;100610.34;5029175;28;20033;-73
2021/08/15 01:30:37;;;;;;;10.30;4.15;;;;;;;17.82;69.96;100609.03;5032428;28;20033;-73
2021/08/15 01:33:33;;;;;;;9.98;4.30;;;;;;;17.81;70.22;100607.41;5021052;28;20425;-73
2021/08/15 01:36:19;;;;;;;9.15;4.43;;;;;;;17.77;70.55;100597.97;5030270;28;20038;-73
2021/08/15 01:39:05;;;;;;;10.02;4.50;;;;;;;17.78;69.98;100600.47;5019535;28;20029;-73
2021/08/15 01:41:51;;;;;;;8.52;4.15;;;;;;;17.73;70.29;100602.63;5034669;28;20030;-73
2021/08/15 01:44:37;;;;;;;10.55;4.50;;;;;;;17.72;70.07;100598.16;5019716;28;20046;-73
2021/08/15 01:47:23;;;;;;;10.60;4.30;;;;;;;17.70;70.25;100604.13;5023547;28;20038;-73
2021/08/15 01:50:09;;;;;;;11.27;4.13;;;;;;;17.65;70.28;100593.91;5027648;28;20060;-73
2021/08/15 01:52:54;;;;;;;10.93;5.05;;;;;;;17.65;70.57;100601.50;5020810;28;20057;-73
2021/08/15 01:55:41;;;;;;;10.18;4.22;;;;;;;17.59;70.44;100598.06;5014487;28;20034;-73
2021/08/15 01:58:26;;;;;;;9.13;4.32;;;;;;;17.56;70.59;100611.97;5029961;28;20072;-73
2021/08/15 02:01:16;;;;;;;9.32;4.13;;;;;;;17.51;70.34;100612.16;5029404;28;20072;-73
2021/08/15 02:04:02;;;;;;;9.77;4.63;;;;;;;17.52;71.24;100609.00;5036518;28;20038;-73
2021/08/15 02:06:49;;;;;;;11.00;4.80;;;;;;;17.51;71.24;100609.34;5033379;28;20041;-73
2021/08/15 02:09:35;;;;;;;11.90;4.28;;;;;;;17.50;70.59;100610.53;5034895;28;20049;-73
2021/08/15 02:12:21;;;;;;;10.43;5.18;;;;;;;17.48;71.29;100608.06;5033738;28;20402;-73
2021/08/15 02:15:07;;;;;;;10.20;4.43;;;;;;;17.46;70.58;100615.16;5021898;28;20029;-73
2021/08/15 02:17:53;;;;;;;9.77;3.85;;;;;;;17.42;70.68;100606.59;5033273;28;20060;-73
2021/08/15 02:20:39;;;;;;;8.70;4.22;;;;;;;17.38;71.28;100598.03;5034360;28;20072;-73
2021/08/15 02:23:25;;;;;;;9.55;4.18;;;;;;;17.38;70.83;100585.97;5012815;28;20033;-73
2021/08/15 02:26:11;;;;;;;7.47;3.72;;;;;;;17.39;70.88;100596.06;5038078;28;20052;-74
2021/08/15 02:28:57;;;;;;;9.60;4.05;;;;;;;17.33;71.18;100587.00;5037185;28;20033;-73
2021/08/15 02:31:43;;;;;;;7.32;3.35;;;;;;;17.33;70.99;100589.00;5031339;28;20045;-73
2021/08/15 02:34:29;;;;;;;11.02;4.72;;;;;;;17.29;70.82;100583.22;5026227;28;20037;-73
2021/08/15 02:37:14;;;;;;;9.93;4.22;;;;;;;17.25;71.01;100581.44;5023017;28;20395;-73
2021/08/15 02:40:00;;;;;;;8.60;3.65;;;;;;;17.23;71.29;100584.56;5035449;28;20568;-73
2021/08/15 02:42:48;;;;;;;10.10;4.35;;;;;;;17.18;71.11;100577.16;5036951;28;20509;-73
2021/08/15 02:45:33;;;;;;;7.88;4.15;;;;;;;17.14;71.30;100576.19;5027323;28;20037;-73
2021/08/15 02:48:19;;;;;;;9.73;3.92;;;;;;;17.12;70.67;100581.31;5027214;28;20117;-73
2021/08/15 02:51:05;;;;;;;11.00;4.35;;;;;;;17.11;71.28;100576.84;5034833;28;20123;-74
2021/08/15 02:53:52;;;;;;;10.77;4.32;;;;;;;17.08;71.32;100574.72;5033209;28;20103;-73
2021/08/15 02:56:38;;;;;;;10.57;3.85;;;;;;;17.04;71.48;100573.75;5020177;28;20030;-73
2021/08/15 02:59:24;;;;;;;9.30;4.55;;;;;;;17.01;71.65;100577.22;5024719;28;20146;-73
2021/08/15 03:02:12;;;;;;;9.07;3.63;;;;;;;16.99;71.43;100573.91;5029867;28;20048;-73
2021/08/15 03:04:57;;;;;;;11.25;4.68;;;;;;;16.95;71.75;100581.38;5011984;28;20034;-73
2021/08/15 03:07:43;;;;;;;13.65;4.57;;;;;;;16.93;72.77;100575.28;5032650;28;20030;-73
2021/08/15 03:10:29;;;;;;;10.00;4.28;;;;;;;16.93;72.21;100572.47;5036775;28;20037;-73
2021/08/15 03:13:15;;;;;;;9.65;4.28;;;;;;;16.90;72.71;100561.91;5031560;28;20445;-73
2021/08/15 03:16:01;;;;;;;11.18;4.63;;;;;;;16.85;72.61;100559.28;5023790;28;20041;-73
2021/08/15 03:18:46;;;;;;;10.00;4.10;;;;;;;16.85;72.55;100562.09;5029674;28;20101;-73
2021/08/15 03:21:34;;;;;;;12.60;4.45;;;;;;;16.84;72.48;100566.06;5036355;28;20069;-73
2021/08/15 03:24:20;;;;;;;11.77;4.18;;;;;;;16.85;72.26;100567.72;5029145;28;20038;-73
2021/08/15 03:27:06;;;;;;;13.00;4.85;;;;;;;16.81;72.75;100567.56;5023725;28;20061;-73
2021/08/15 03:29:52;;;;;;;11.75;4.72;;;;;;;16.78;72.44;100561.81;5037377;28;20044;-73
2021/08/15 03:32:38;;;;;;;9.75;4.40;;;;;;;16.77;72.92;100563.78;5031505;28;20041;-73
2021/08/15 03:35:23;;;;;;;9.77;3.85;;;;;;;16.74;72.72;100559.63;5033919;28;20072;-73
2021/08/15 03:38:09;;;;;;;8.77;3.88;;;;;;;16.72;72.53;100561.94;5034513;28;20033;-73
2021/08/15 03:40:55;;;;;;;11.38;4.20;;;;;;;16.70;72.82;100567.06;5035596;28;20056;-73
2021/08/15 03:43:41;;;;;;;11.43;4.45;;;;;;;16.69;72.79;100567.41;5032298;28;20044;-73
2021/08/15 03:46:27;;;;;;;10.55;4.22;;;;;;;16.63;73.17;100571.53;5031073;28;20707;-73
2021/08/15 03:49:12;;;;;;;10.88;4.20;;;;;;;16.61;73.29;100569.06;5020855;28;20109;-73
2021/08/15 03:51:58;;;;;;;10.50;4.18;;;;;;;16.63;73.47;100560.31;5025225;28;20589;-73
2021/08/15 03:54:44;;;;;;;9.65;4.28;;;;;;;16.60;73.23;100561.81;5030922;28;20551;-73
2021/08/15 03:57:30;;;;;;;8.20;4.18;;;;;;;16.61;72.94;100557.84;5032683;28;20041;-73
2021/08/15 04:00:16;;;;;;;9.45;4.22;;;;;;;16.57;73.26;100547.63;5021348;28;20030;-73
2021/08/15 04:03:02;;;;;;;8.35;3.55;;;;;;;16.56;73.50;100549.63;5027128;28;20443;-73
2021/08/15 04:05:48;;;;;;;11.27;4.00;;;;;;;16.56;72.99;100558.03;5029842;28;20033;-73
2021/08/15 04:08:34;;;;;;;9.90;3.60;;;;;;;16.50;73.13;100565.78;5020743;28;20037;-73
2021/08/15 04:11:21;;;;;;;7.57;3.88;;;;;;;16.48;72.91;100564.47;5036373;28;20560;-73
2021/08/15 04:14:07;;;;;;;9.55;4.32;;;;;;;16.44;73.14;100558.72;5016583;28;20026;-73
2021/08/15 04:16:52;;;;;;;9.50;4.07;;;;;;;16.46;72.95;100559.19;5025293;28;20068;-73
2021/08/15 04:19:38;;;;;;;11.40;4.35;;;;;;;16.41;73.34;100558.53;5029688;28;20116;-73
2021/08/15 04:22:24;;;;;;;13.15;4.10;;;;;;;16.37;73.45;100552.78;5034879;28;20038;-73
2021/08/15 04:25:10;;;;;;;9.35;4.07;;;;;;;16.35;73.62;100566.28;5031034;28;20532;-73
2021/08/15 04:27:56;;;;;;;8.40;3.47;;;;;;;16.35;73.37;100557.06;5033655;28;20029;-73
2021/08/15 04:30:42;;;;;;;9.45;3.65;;;;;;;16.31;73.38;100559.72;5028973;28;20048;-73
2021/08/15 04:33:27;;;;;;;8.52;3.78;;;;;;;16.28;73.27;100552.78;5032661;28;20033;-73
2021/08/15 04:36:13;;;;;;;7.05;3.75;;;;;;;16.28;73.47;100557.59;5019274;28;20037;-73
2021/08/15 04:38:59;;;;;;;8.73;3.42;;;;;;;16.22;73.28;100551.31;5030789;28;20041;-73
2021/08/15 04:41:45;;;;;;;8.38;3.60;;;;;;;16.23;72.98;100552.16;5022360;28;20041;-73
2021/08/15 04:44:32;;;;;;;7.50;3.53;;;;;;;16.20;73.41;100552.81;5026069;28;20038;-73
2021/08/15 04:47:18;;;;;;;10.35;3.65;;;;;;;16.16;73.10;100555.47;5026457;28;20041;-73
2021/08/15 04:50:04;;;;;;;9.65;4.00;;;;;;;16.14;73.15;100549.34;5029521;28;20041;-73
2021/08/15 04:52:49;;;;;;;6.88;3.13;;;;;;;16.12;73.28;100553.63;5035717;28;20584;-73
2021/08/15 04:55:35;;;;;;;10.38;3.60;;;;;;;16.11;73.40;100549.19;5027096;28;20026;-73
2021/08/15 04:58:21;;;;;;;8.50;3.63;;;;;;;16.03;73.12;100548.03;5027920;28;20030;-73
2021/08/15 05:01:07;;;;;;;9.98;3.85;;;;;;;16.02;72.99;100546.41;5025964;28;21133;-73
2021/08/15 05:03:53;;;;;;;9.73;3.85;;;;;;;15.99;73.30;100553.50;5032393;28;20038;-73
2021/08/15 05:06:39;;;;;;;10.93;4.18;;;;;;;15.96;73.38;100554.13;5032230;28;20037;-73
2021/08/15 05:09:24;;;;;;;7.18;3.35;;;;;;;15.91;73.08;100556.25;5028717;28;20029;-73
2021/08/15 05:12:10;;;;;;;8.02;3.67;;;;;;;15.90;73.47;100560.22;5021271;28;20033;-73
2021/08/15 05:14:56;;;;;;;5.30;3.00;;;;;;;15.92;73.21;100564.34;5037425;28;20030;-74
2021/08/15 05:17:42;;;;;;;8.93;3.50;;;;;;;15.86;73.41;100569.28;5031220;28;20397;-73
2021/08/15 05:20:29;;;;;;;8.02;4.00;;;;;;;15.88;73.53;100565.31;5027134;28;20035;-73
2021/08/15 05:23:15;;;;;;;9.20;4.78;;;;;;;15.88;73.89;100559.72;5029498;28;20037;-73
2021/08/15 05:26:01;;;;;;;10.50;4.53;;;;;;;15.88;73.99;100559.72;5024225;28;20038;-73
2021/08/15 05:28:46;;;;;;;9.27;4.10;;;;;;;15.91;74.07;100565.50;5023013;28;20036;-73
2021/08/15 05:31:32;;;;;;;9.90;4.03;;;;;;;15.95;74.31;100568.47;5023974;28;20065;-73
2021/08/15 05:34:18;;;;;;;10.77;4.53;;;;;;;16.01;74.81;100581.97;5024881;28;20034;-73
2021/08/15 05:37:04;;;;;;;9.55;4.05;;;;;;;16.03;74.82;100585.28;5024987;28;20036;-73
2021/08/15 05:39:50;;;;;;;9.02;4.00;;;;;;;16.09;75.73;100583.13;5030973;28;20052;-73
2021/08/15 05:42:35;;;;;;;8.43;3.90;;;;;;;16.16;76.76;100596.63;5034676;28;20392;-73
2021/08/15 05:45:21;;;;;;;8.10;3.80;;;;;;;16.24;75.02;100584.59;5035070;28;20036;-74
2021/08/15 05:48:07;;;;;;;8.57;3.30;;;;;;;16.33;76.07;100590.22;5031917;28;20042;-73
2021/08/15 05:50:53;;;;;;;9.95;3.97;;;;;;;16.43;76.63;100590.69;5031354;28;20056;-73
2021/08/15 05:53:39;;;;;;;8.43;3.58;;;;;;;16.54;77.95;100597.59;5034246;28;20475;-73
2021/08/15 05:56:25;;;;;;;7.88;3.53;;;;;;;16.65;78.46;100595.28;5035958;28;20049;-73
2021/08/15 05:59:10;;;;;;;9.57;3.70;;;;;;;16.77;77.66;100591.84;5035050;28;20124;-73
2021/08/15 06:01:57;;;;;;;9.15;3.95;;;;;;;16.92;79.74;100588.47;5033543;28;20034;-73
2021/08/15 06:04:42;;;;;;;10.57;4.15;;;;;;;17.06;79.06;100593.06;5031544;28;20604;-73
2021/08/15 06:07:28;;;;;;;6.97;3.97;;;;;;;17.19;78.16;100592.84;5034674;28;20397;-73
2021/08/15 06:10:14;;;;;;;8.43;4.20;;;;;;;17.32;77.68;100599.38;5030055;28;20606;-73
2021/08/15 06:13:00;;;;;;;10.55;4.55;;;;;;;17.46;77.20;100592.69;5029284;28;20064;-73
2021/08/15 06:15:46;;;;;;;7.85;3.83;;;;;;;17.58;75.95;100602.06;5023998;28;20029;-73
2021/08/15 06:18:31;;;;;;;8.52;4.00;;;;;;;17.70;75.14;100603.31;5036764;28;20052;-73
2021/08/15 06:21:17;;;;;;;7.63;4.05;;;;;;;17.82;75.65;100606.22;5034105;28;20029;-73
2021/08/15 06:24:03;;;;;;;10.05;4.80;;;;;;;17.92;76.35;100602.22;5027036;28;20075;-73
2021/08/15 06:26:49;;;;;;;9.48;4.63;;;;;;;18.02;74.81;100602.59;5021388;28;20030;-73
2021/08/15 06:29:35;;;;;;;7.45;4.10;;;;;;;18.14;74.23;100606.69;5038130;28;20042;-73
2021/08/15 06:32:21;;;;;;;10.38;4.70;;;;;;;18.25;74.21;100608.72;5033302;28;20120;-73
2021/08/15 06:35:06;;;;;;;8.65;4.10;;;;;;;18.40;72.83;100604.44;5028227;28;20034;-73
2021/08/15 06:37:53;;;;;;;7.80;4.10;;;;;;;18.56;72.20;100601.81;5025334;28;20442;-73
2021/08/15 06:40:38;;;;;;;7.93;4.32;;;;;;;18.71;73.35;100597.53;5036719;28;20112;-73
2021/08/15 06:43:24;;;;;;;7.25;4.50;;;;;;;18.88;72.13;100599.34;5033775;28;20133;-73
2021/08/15 06:46:10;;;;;;;8.40;4.82;;;;;;;19.03;71.93;100601.53;5023239;28;20092;-73
2021/08/15 06:48:56;;;;;;;9.23;5.03;;;;;;;19.19;71.96;100598.81;5035346;28;20037;-73
2021/08/15 06:51:45;;;;;;;10.77;5.78;;;;;;;19.35;72.27;100596.16;5030361;28;20580;-73
2021/08/15 06:54:31;;;;;;;8.52;4.93;;;;;;;19.54;71.21;100595.56;5030761;28;20037;-73
2021/08/15 06:57:17;;;;;;;9.85;4.50;;;;;;;19.70;70.40;100596.53;5021806;28;20068;-73
2021/08/15 07:00:05;;;;;;;7.68;4.50;;;;;;;19.86;69.77;100607.88;5026445;28;20048;-76
2021/08/15 07:02:50;;;;;;;6.35;4.25;;;;;;;20.05;68.90;100610.06;5004625;28;20061;-76
2021/08/15 07:05:36;;;;;;;5.88;3.60;;;;;;;20.26;68.18;100610.72;5026336;28;20041;-70
2021/08/15 07:08:22;;;;;;;8.70;4.43;;;;;;;20.43;68.41;100605.97;5026923;28;20093;-70
2021/08/15 07:11:08;;;;;;;7.68;4.88;;;;;;;20.60;68.72;100627.44;5035651;28;20512;-70
2021/08/15 07:13:54;;;;;;;7.82;4.43;;;;;;;20.81;67.82;100615.91;5032358;28;20040;-70
2021/08/15 07:16:39;;;;;;;9.85;5.22;;;;;;;20.96;67.79;100617.97;5032836;28;20029;-70
2021/08/15 07:19:25;;;;;;;9.45;4.90;;;;;;;21.11;67.03;100605.84;5031338;28;20038;-70
2021/08/15 07:22:11;;;;;;;7.68;4.95;;;;;;;21.27;67.18;100608.69;5035516;28;20038;-70
2021/08/15 07:24:57;;;;;;;8.95;5.07;;;;;;;21.42;66.47;100621.19;5034667;28;20402;-70
2021/08/15 07:27:43;;;;;;;8.88;6.32;;;;;;;21.56;67.42;100610.28;5029537;28;20034;-70
2021/08/15 07:30:29;;;;;;;13.45;8.07;;;;;;;21.62;67.54;100611.63;5036655;28;20025;-70
2021/08/15 07:33:15;;;;;;;10.20;7.22;;;;;;;21.72;67.80;100618.72;5028047;28;20105;-70
2021/08/15 07:36:00;;;;;;;9.57;6.00;;;;;;;21.87;66.01;100622.72;5027841;28;20029;-70
2021/08/15 07:38:49;;;;;;;10.30;6.07;;;;;;;22.00;65.92;100621.38;5021094;28;20049;-70
2021/08/15 07:41:43;;;;;;;11.63;6.63;;;;;;;22.05;65.71;100621.09;5040187;28;20092;-70
2021/08/15 07:44:28;;;;;;;11.45;7.25;;;;;;;21.99;66.21;100625.41;5025277;28;20030;-71
2021/08/15 07:47:14;;;;;;;9.43;6.78;;;;;;;21.92;66.67;100624.41;5031510;28;20100;-74
2021/08/15 07:50:00;;;;;;;10.10;5.68;;;;;;;21.92;66.58;100618.75;5031796;28;20033;-74
2021/08/15 07:52:46;;;;;;;8.77;6.43;;;;;;;21.85;66.72;100625.09;5023812;28;20580;-75
2021/08/15 07:55:32;;;;;;;8.02;5.70;;;;;;;21.81;66.99;100624.16;5025968;28;20407;-75
2021/08/15 07:58:19;;;;;;;7.90;5.45;;;;;;;21.79;66.81;100626.56;5030650;28;20041;-75
2021/08/15 08:01:05;;;;;;;11.50;5.90;;;;;;;21.69;67.39;100625.09;4992773;28;20045;-75
2021/08/15 08:03:51;;;;;;;8.18;5.40;;;;;;;21.67;67.41;100635.13;5034501;28;20076;-74
2021/08/15 08:06:36;;;;;;;9.40;5.95;;;;;;;21.54;68.28;100640.09;5021254;28;20116;-75
2021/08/15 08:09:23;;;;;;;8.82;5.93;;;;;;;21.56;68.01;100635.72;5013916;28;20501;-75
2021/08/15 08:12:08;;;;;;;6.95;5.40;;;;;;;21.47;68.34;100637.88;4993016;28;20033;-75
2021/08/15 08:14:54;;;;;;;8.23;6.20;;;;;;;21.40;68.33;100638.53;5023522;28;20034;-75
2021/08/15 08:17:40;;;;;;;10.20;7.00;;;;;;;21.31;69.61;100634.19;5020526;28;20040;-75
2021/08/15 08:20:26;;;;;;;9.68;6.20;;;;;;;21.30;68.95;100635.41;5019415;28;20030;-74
2021/08/15 08:23:13;;;;;;;8.15;5.20;;;;;;;21.28;69.33;100637.75;5011158;28;20096;-74
2021/08/15 08:25:59;;;;;;;7.78;5.30;;;;;;;21.22;69.32;100639.22;5007707;28;20130;-74
2021/08/15 08:28:45;;;;;;;11.32;6.38;;;;;;;21.20;69.55;100639.56;5015448;28;20088;-72
2021/08/15 08:31:31;;;;;;;9.07;5.75;;;;;;;21.22;69.37;100644.88;5018629;28;20104;-72
2021/08/15 08:34:17;;;;;;;10.75;6.20;;;;;;;21.23;69.41;100640.84;5002765;28;20451;-72
2021/08/15 08:37:03;;;;;;;9.93;6.40;;;;;;;21.24;69.41;100642.50;5033291;28;20067;-72
2021/08/15 08:39:49;;;;;;;10.43;7.00;;;;;;;21.22;69.80;100645.69;5030045;28;20446;-75
2021/08/15 08:42:34;;;;;;;10.52;6.50;;;;;;;21.24;69.50;100646.16;5025047;28;20048;-73
2021/08/15 08:45:22;;;;;;;9.32;5.50;;;;;;;21.24;69.53;100646.16;5019706;28;20034;-73
2021/08/15 08:48:08;;;;;;;8.43;5.53;;;;;;;21.29;69.26;100647.88;5024833;28;20036;-72
2021/08/15 08:50:54;;;;;;;8.02;5.28;;;;;;;21.25;69.10;100652.59;4998558;28;20084;-72
2021/08/15 08:53:40;;;;;;;9.35;5.97;;;;;;;21.22;69.26;100656.16;5001827;28;20133;-73
2021/08/15 08:56:25;;;;;;;10.68;6.60;;;;;;;21.24;69.22;100656.63;5019696;28;20048;-73
2021/08/15 08:59:11;;;;;;;10.18;6.22;;;;;;;21.24;69.11;100650.97;5028421;28;20037;-72
2021/08/15 09:01:57;;;;;;;8.93;6.18;;;;;;;21.26;69.39;100657.91;5030741;28;20041;-73
2021/08/15 09:04:43;;;;;;;7.80;5.60;;;;;;;21.23;69.31;100652.13;5021061;28;20037;-73
2021/08/15 09:07:32;;;;;;;10.05;6.22;;;;;;;21.26;69.34;100651.44;5034460;28;20033;-72
2021/08/15 09:10:19;;;;;;;7.72;4.80;;;;;;;21.30;69.00;100644.69;5012479;28;20045;-69
2021/08/15 09:13:07;;;;;;;10.43;6.18;;;;;;;21.27;69.22;100639.75;5010230;28;20037;-70
2021/08/15 09:15:55;;;;;;;9.93;6.13;;;;;;;21.33;69.40;100649.59;5031079;28;20026;-70
2021/08/15 09:18:40;;;;;;;11.20;6.63;;;;;;;21.33;69.37;100643.94;5021542;28;20047;-70
2021/08/15 09:21:29;;;;;;;10.40;6.22;;;;;;;21.38;69.48;100648.56;5030956;28;20030;-70
2021/08/15 09:24:15;;;;;;;8.52;6.22;;;;;;;21.41;69.60;100645.00;5028821;28;20042;-70
2021/08/15 09:27:02;;;;;;;9.95;6.57;;;;;;;21.49;69.74;100641.16;5018459;28;20570;-70
2021/08/15 09:30:15;;;;;;;8.43;5.25;;;;;;;21.61;69.55;100643.88;5036818;28;20025;-70
2021/08/15 09:33:06;;;;;;;8.50;5.10;;;;;;;21.78;69.02;100628.53;5033438;28;20051;-70
2021/08/15 09:35:52;;;;;;;8.52;5.95;;;;;;;21.93;69.17;100626.88;5034393;28;20033;-70
2021/08/15 09:38:42;;;;;;;7.25;5.35;;;;;;;22.12;68.25;100628.94;5031353;28;20045;-70
2021/08/15 09:41:31;;;;;;;7.07;5.05;;;;;;;22.32;68.31;100629.00;5030632;28;20096;-70
2021/08/15 09:44:26;;;;;;;8.68;4.97;;;;;;;22.59;69.23;100641.28;5032887;28;20509;-69
2021/08/15 09:47:12;;;;;;;4.65;3.67;;;;;;;22.91;67.74;100634.25;5016857;28;20033;-69
2021/08/15 09:49:58;;;;;;;7.15;4.30;;;;;;;23.20;66.58;100629.94;5026053;28;20041;-69
2021/08/15 09:52:44;;;;;;;5.90;4.15;;;;;;;23.53;66.67;100636.19;5027744;28;20045;-69
2021/08/15 09:55:45;;;;;;;4.90;3.33;;;;;;;23.83;64.33;100633.47;5034557;28;20033;-70
2021/08/15 09:58:31;;;;;;;5.43;3.55;;;;;;;24.08;63.43;100637.50;5018395;28;20069;-70
2021/08/15 10:01:17;;;;;;;5.63;3.80;;;;;;;24.29;62.83;100636.13;5014312;28;20038;-70
2021/08/15 10:04:03;;;;;;;6.20;3.50;;;;;;;24.46;62.66;100632.78;5024420;28;20042;-70
2021/08/15 10:06:51;;;;;;;4.88;3.38;;;;;;;24.67;62.10;100625.72;5017443;28;20089;-70
2021/08/15 10:09:37;;;;;;;8.68;4.20;;;;;;;24.84;62.08;100630.78;5022108;28;20105;-70
2021/08/15 10:12:23;;;;;;;4.53;3.28;;;;;;;25.02;61.86;100630.16;5014160;28;20033;-69
2021/08/15 10:15:13;;;;;;;5.18;3.92;;;;;;;25.10;59.97;100631.84;5030866;28;20022;-71
2021/08/15 10:17:58;;;;;;;5.07;3.70;;;;;;;25.22;59.24;100628.78;5018170;28;20037;-72
2021/08/15 10:20:44;;;;;;;4.90;3.78;;;;;;;25.27;58.62;100630.44;5023959;28;20042;-72
2021/08/15 10:23:39;;;;;;;6.35;3.70;;;;;;;25.33;58.08;100628.88;5027430;28;20095;-72
2021/08/15 10:26:38;;;;;;;6.63;3.92;;;;;;;25.32;58.46;100632.91;5028727;28;20032;-72
2021/08/15 10:29:37;;;;;;;5.22;3.90;;;;;;;25.36;57.72;100633.78;5034472;28;20509;-73
2021/08/15 10:32:23;;;;;;;5.93;3.80;;;;;;;25.36;57.85;100642.31;5032975;28;20681;-73
2021/08/15 10:35:09;;;;;;;5.78;3.40;;;;;;;25.41;57.52;100639.91;5028940;28;20084;-72
2021/08/15 10:37:58;;;;;;;4.85;3.55;;;;;;;25.37;58.00;100636.22;5026929;28;20045;-72
2021/08/15 10:40:48;;;;;;;4.63;3.10;;;;;;;25.43;57.25;100630.97;5022741;28;20044;-72
2021/08/15 10:43:34;;;;;;;6.43;3.10;;;;;;;25.45;57.23;100631.41;5025160;28;20486;-72
2021/08/15 10:46:22;;;;;;;4.75;2.92;;;;;;;25.46;57.43;100632.22;5032447;28;20060;-72
2021/08/15 10:49:08;;;;;;;3.75;2.50;;;;;;;25.39;57.54;100624.47;5030852;28;20040;-72
2021/08/15 10:51:54;;;;;;;3.55;2.33;;;;;;;25.39;57.46;100630.97;5062916;28;20124;-72
2021/08/15 10:54:40;;;;;;;3.03;2.45;;;;;;;25.37;57.81;100627.69;5037704;28;20040;-72
2021/08/15 10:57:47;;;;;;;3.35;2.10;;;;;;;25.29;58.06;100628.00;5032587;28;20047;-72
2021/08/15 11:00:33;;;;;;;2.15;1.80;;;;;;;25.30;57.97;100633.31;5034847;28;20084;-72
2021/08/15 11:03:21;;;;;;;2.53;2.00;;;;;;;25.24;58.02;100625.53;5020177;28;20045;-72
2021/08/15 11:06:29;;;;;;;2.95;2.05;;;;;;;25.19;58.09;100623.88;5025452;28;20045;-72
2021/08/15 11:09:15;;;;;;;1.67;1.50;;;;;;;25.18;58.15;100633.59;5035481;28;20112;-72
2021/08/15 11:12:06;;;;;;;2.85;1.58;;;;;;;25.16;58.50;100616.94;5030391;28;20394;-71
2021/08/15 11:15:06;;;;;;;2.15;1.85;;;;;;;25.12;57.99;100620.94;5023932;28;20052;-72
2021/08/15 11:18:13;;;;;;;3.20;1.90;;;;;;;25.11;58.45;100622.94;5026386;28;20072;-73
2021/08/15 11:20:59;;;;;;;2.38;1.90;;;;;;;25.10;58.18;100620.50;5035399;28;20096;-73
2021/08/15 11:23:44;;;;;;;3.22;1.75;;;;;;;25.06;58.88;100611.94;5033976;28;20037;-73
2021/08/15 11:26:31;;;;;;;3.10;1.65;;;;;;;25.10;58.20;100609.97;5030160;28;20061;-73
2021/08/15 11:29:20;;;;;;;2.65;1.85;;;;;;;25.12;58.77;100618.91;5021298;28;20060;-73
2021/08/15 11:32:18;;;;;;;1.70;1.60;;;;;;;25.13;58.41;100614.88;5037646;28;20041;-73
2021/08/15 11:35:09;;;;;;;3.08;1.60;;;;;;;25.16;59.27;100624.66;5027820;28;20036;-72
2021/08/15 11:37:54;;;;;;;3.08;1.58;;;;;;;25.19;59.40;100612.50;5028323;28;20034;-72
2021/08/15 11:40:57;;;;;;;1.50;1.20;;;;;;;25.27;60.42;100600.00;5034990;28;20048;-72
2021/08/15 11:43:43;;;;;;;2.45;1.80;;;;;;;25.34;60.75;100600.06;5033341;28;20046;-73
2021/08/15 11:46:29;;;;;;;1.60;1.45;;;;;;;25.44;60.88;100595.69;5011638;28;20034;-72
2021/08/15 11:49:33;;;;;;;1.30;1.10;;;;;;;25.52;59.89;100588.84;5031606;28;20040;-72
2021/08/15 11:52:20;;;;;;;1.88;1.45;;;;;;;25.67;59.35;100600.31;5027100;28;20077;-73
2021/08/15 11:55:16;;;;;;;1.63;1.30;;;;;;;25.78;59.07;100601.22;5023427;28;20021;-73
2021/08/15 11:58:02;;;;;;;1.30;1.10;;;;;;;25.87;59.42;100590.31;5030439;28;20038;-72
2021/08/15 12:00:48;;;;;;;1.95;1.25;;;;;;;25.93;59.31;100591.56;5025728;28;20045;-73
2021/08/15 12:03:34;;;;;;;1.67;1.00;;;;;;;25.99;59.32;100580.63;5027753;28;20116;-73
2021/08/15 12:06:20;;;;;;;1.92;1.17;;;;;;;26.06;58.93;100587.19;5032668;28;20038;-73
2021/08/15 12:09:21;;;;;;;1.60;1.02;;;;;;;26.11;58.43;100579.50;5035035;28;20501;-75
2021/08/15 12:12:11;;;;;;;1.30;1.00;;;;;;;26.19;58.90;100567.75;5026261;28;20042;-75
2021/08/15 12:15:04;;;;;;;2.78;1.02;;;;;;;26.32;58.99;100565.34;5023617;28;20038;-75
2021/08/15 12:17:50;;;;;;;1.38;1.00;;;;;;;26.44;57.70;100561.31;5030312;28;20037;-75
2021/08/15 12:20:43;;;;;;;1.33;0.90;;;;;;;26.61;56.54;100554.91;5033400;28;20037;-75
2021/08/15 12:23:30;;;;;;;1.52;0.82;;;;;;;26.84;56.58;100551.69;5033312;28;20120;-75
2021/08/15 12:26:16;;;;;;;1.65;0.98;;;;;;;27.08;57.21;100555.81;5024469;28;20040;-75
2021/08/15 12:29:10;;;;;;;1.30;1.00;;;;;;;27.27;55.83;100551.75;5010386;28;20044;-75
2021/08/15 12:32:31;;;;;;;1.60;0.80;;;;;;;27.49;55.67;100551.75;5020989;28;20067;-75
2021/08/15 12:35:24;;;;;;;1.10;0.90;;;;;;;27.71;55.23;100558.22;5029328;28;20085;-76
2021/08/15 12:38:25;;;;;;;1.25;0.80;;;;;;;27.80;54.12;100550.91;5018578;28;20030;-75
2021/08/15 12:41:44;;;;;;;1.38;1.15;;;;;;;27.98;53.86;100550.06;5028107;28;20039;-75
2021/08/15 12:44:48;;;;;;;0.82;0.75;;;;;;;28.14;54.20;100547.56;5020254;28;20394;-75
2021/08/15 12:47:35;;;;;;;1.70;0.90;;;;;;;28.21;52.78;100541.78;5032621;28;20029;-74
2021/08/15 12:50:24;;;;;;;1.20;0.93;;;;;;;28.38;53.56;100545.78;5002774;28;20371;-75
2021/08/15 12:53:17;;;;;;;1.20;0.77;;;;;;;28.54;53.03;100535.97;5015866;28;20045;-74
2021/08/15 12:56:18;;;;;;;1.15;1.00;;;;;;;28.76;54.12;100543.19;5006531;28;20113;-75